createdAt,value
2022-11-05T00:09:21.456Z,5.40
2022-11-05T00:23:21.484Z,5.00
2022-11-05T00:37:21.510Z,4.60
2022-11-05T00:51:21.528Z,4.50
2022-11-05T01:05:21.534Z,4.40
2022-11-05T01:19:21.519Z,3.80
2022-11-05T01:33:21.524Z,3.45
2022-11-05T01:47:21.535Z,2.90
2022-11-05T02:01:21.607Z,3.10
2022-11-05T02:15:21.551Z,2.80
2022-11-05T02:29:21.607Z,2.30
2022-11-05T02:43:21.917Z,2.10
2022-11-05T02:57:21.958Z,2.00
2022-11-05T03:11:21.965Z,1.80
2022-11-05T03:25:21.966Z,1.50
2022-11-05T03:39:21.973Z,1.40
2022-11-05T03:53:21.968Z,1.50
2022-11-05T04:07:21.992Z,1.20
2022-11-05T04:21:22.008Z,1.10
2022-11-05T04:35:22.000Z,1.00
2022-11-05T04:49:22.030Z,1.10
2022-11-05T05:03:22.016Z,0.90
2022-11-05T05:17:22.001Z,1.00
2022-11-05T05:31:22.035Z,0.80
2022-11-05T05:45:22.056Z,0.70
2022-11-05T06:00:22.159Z,0.60
2022-11-05T06:15:22.178Z,0.60
2022-11-05T06:30:22.171Z,0.50
2022-11-05T06:45:22.190Z,0.50
2022-11-05T07:00:22.275Z,4.80
2022-11-05T07:15:22.278Z,4.85
2022-11-05T07:30:22.295Z,4.50
2022-11-05T07:45:22.298Z,3.70
2022-11-05T08:00:22.297Z,3.80
2022-11-05T08:15:22.310Z,3.70
2022-11-05T08:30:22.304Z,2.90
2022-11-05T08:45:22.539Z,3.10
2022-11-05T09:00:22.305Z,2.80
2022-11-05T09:15:22.309Z,2.60
2022-11-05T09:30:22.323Z,2.40
2022-11-05T09:45:22.314Z,2.30
2022-11-05T10:00:22.399Z,2.20
2022-11-05T10:15:22.357Z,2.30
2022-11-05T10:30:22.355Z,2.00
2022-11-05T10:46:22.399Z,1.70
2022-11-05T11:01:22.555Z,1.90
2022-11-05T11:16:22.388Z,1.60
2022-11-05T11:31:22.424Z,1.60
2022-11-05T11:46:22.397Z,1.50
2022-11-05T12:01:22.450Z,1.50
2022-11-05T12:16:22.438Z,1.40
2022-11-05T12:32:22.554Z,1.30
2022-11-05T12:48:27.625Z,1.15
2022-11-05T13:04:22.469Z,1.10
2022-11-05T13:20:22.460Z,1.00
2022-11-05T13:36:22.451Z,1.20
2022-11-05T13:52:22.482Z,1.10
2022-11-05T14:08:22.465Z,1.00
2022-11-05T14:24:22.467Z,1.00
2022-11-05T14:40:22.472Z,0.90
2022-11-05T14:56:22.474Z,0.70
2022-11-05T15:12:22.474Z,0.90
2022-11-05T15:28:22.526Z,0.70
2022-11-05T15:43:22.532Z,0.90
2022-11-05T15:59:22.524Z,0.70
2022-11-05T16:16:22.531Z,0.80
2022-11-05T16:32:26.815Z,0.70
2022-11-05T16:47:22.567Z,0.80
2022-11-05T17:02:22.644Z,1.00
2022-11-05T17:17:22.532Z,1.00
2022-11-05T17:32:22.642Z,0.95
2022-11-05T17:47:22.534Z,1.10
2022-11-05T18:01:12.896Z,1.20
2022-11-05T18:03:34.327Z,1.15
2022-11-05T18:17:33.603Z,1.20
2022-11-05T18:24:55.331Z,1.20
2022-11-05T18:37:54.605Z,3.10
2022-11-05T18:51:54.587Z,3.50
2022-11-05T19:05:54.598Z,3.90
2022-11-05T19:19:54.749Z,4.90
2022-11-05T19:33:54.706Z,6.50
2022-11-05T19:47:54.726Z,6.60
2022-11-05T20:01:54.815Z,6.60
2022-11-05T20:15:54.721Z,6.40
2022-11-05T20:29:54.742Z,6.10
2022-11-05T20:43:54.765Z,5.40
2022-11-05T20:57:54.745Z,5.50
2022-11-05T21:11:54.737Z,5.10
2022-11-05T21:25:54.744Z,5.20
2022-11-05T21:39:54.821Z,4.80
2022-11-05T21:53:54.793Z,4.50
2022-11-05T22:07:54.799Z,4.10
2022-11-05T22:21:54.813Z,3.80
2022-11-05T22:35:54.823Z,3.70
2022-11-05T22:49:54.867Z,3.50
2022-11-05T23:03:54.838Z,3.20
2022-11-05T23:17:54.864Z,2.90
2022-11-05T23:31:55.020Z,2.75
2022-11-05T23:45:55.000Z,2.55
2022-11-05T23:59:55.067Z,2.50
